sensor_id;sensor_type;location;lat;lon;timestamp;P1;durP1;ratioP1;P2;durP2;ratioP2
46078;SDS011;31820;51.880;-0.518;2022-11-14T00:00:46;4.80;;;3.80;;
46078;SDS011;31820;51.880;-0.518;2022-11-14T00:03:12;4.65;;;3.88;;
46078;SDS011;31820;51.880;-0.518;2022-11-14T00:05:42;5.00;;;3.95;;
46078;SDS011;31820;51.880;-0.518;2022-11-14T00:08:20;5.38;;;3.92;;
46078;SDS011;31820;51.880;-0.518;2022-11-14T00:10:47;5.00;;;3.80;;
46078;SDS011;31820;51.880;-0.518;2022-11-14T00:13:14;4.10;;;3.35;;
46078;SDS011;31820;51.880;-0.518;2022-11-14T00:15:41;5.40;;;3.53;;
46078;SDS011;31820;51.880;-0.518;2022-11-14T00:18:07;5.07;;;3.80;;
46078;SDS011;31820;51.880;-0.518;2022-11-14T00:20:32;6.45;;;4.07;;
46078;SDS011;31820;51.880;-0.518;2022-11-14T00:22:58;6.05;;;4.50;;
46078;SDS011;31820;51.880;-0.518;2022-11-14T00:25:23;4.68;;;4.03;;
46078;SDS011;31820;51.880;-0.518;2022-11-14T00:27:49;5.38;;;4.43;;
46078;SDS011;31820;51.880;-0.518;2022-11-14T00:30:14;6.10;;;5.25;;
46078;SDS011;31820;51.880;-0.518;2022-11-14T00:32:40;5.35;;;4.30;;
46078;SDS011;31820;51.880;-0.518;2022-11-14T00:35:06;5.35;;;3.97;;
46078;SDS011;31820;51.880;-0.518;2022-11-14T00:39:58;6.38;;;3.88;;
46078;SDS011;31820;51.880;-0.518;2022-11-14T00:42:24;7.00;;;4.30;;
46078;SDS011;31820;51.880;-0.518;2022-11-14T00:44:49;4.80;;;3.70;;
46078;SDS011;31820;51.880;-0.518;2022-11-14T00:47:15;5.45;;;3.97;;
46078;SDS011;31820;51.880;-0.518;2022-11-14T00:49:40;6.38;;;4.05;;
46078;SDS011;31820;51.880;-0.518;2022-11-14T00:52:06;4.65;;;3.65;;
46078;SDS011;31820;51.880;-0.518;2022-11-14T00:54:32;6.05;;;4.20;;
46078;SDS011;31820;51.880;-0.518;2022-11-14T00:56:57;5.38;;;3.80;;
46078;SDS011;31820;51.880;-0.518;2022-11-14T00:59:23;5.32;;;3.78;;
46078;SDS011;31820;51.880;-0.518;2022-11-14T01:01:48;4.53;;;3.75;;
46078;SDS011;31820;51.880;-0.518;2022-11-14T01:04:14;4.38;;;3.50;;
46078;SDS011;31820;51.880;-0.518;2022-11-14T01:06:39;4.40;;;3.38;;
46078;SDS011;31820;51.880;-0.518;2022-11-14T01:09:05;5.53;;;3.80;;
46078;SDS011;31820;51.880;-0.518;2022-11-14T01:11:30;4.95;;;3.17;;
46078;SDS011;31820;51.880;-0.518;2022-11-14T01:13:56;5.72;;;3.25;;
46078;SDS011;31820;51.880;-0.518;2022-11-14T01:16:21;4.35;;;3.25;;
46078;SDS011;31820;51.880;-0.518;2022-11-14T01:18:47;4.00;;;3.17;;
46078;SDS011;31820;51.880;-0.518;2022-11-14T01:21:12;3.83;;;3.28;;
46078;SDS011;31820;51.880;-0.518;2022-11-14T01:23:38;4.70;;;2.97;;
46078;SDS011;31820;51.880;-0.518;2022-11-14T01:26:05;3.58;;;2.97;;
46078;SDS011;31820;51.880;-0.518;2022-11-14T01:28:33;5.30;;;3.72;;
46078;SDS011;31820;51.880;-0.518;2022-11-14T01:31:21;5.10;;;3.67;;
46078;SDS011;31820;51.880;-0.518;2022-11-14T01:33:49;4.78;;;3.60;;
46078;SDS011;31820;51.880;-0.518;2022-11-14T01:36:16;4.57;;;3.40;;
46078;SDS011;31820;51.880;-0.518;2022-11-14T01:38:43;4.47;;;3.80;;
46078;SDS011;31820;51.880;-0.518;2022-11-14T01:41:10;4.50;;;3.50;;
46078;SDS011;31820;51.880;-0.518;2022-11-14T01:43:38;4.47;;;3.40;;
46078;SDS011;31820;51.880;-0.518;2022-11-14T01:48:43;4.20;;;3.17;;
46078;SDS011;31820;51.880;-0.518;2022-11-14T01:54:02;4.25;;;3.80;;
46078;SDS011;31820;51.880;-0.518;2022-11-14T01:56:39;4.18;;;3.78;;
46078;SDS011;31820;51.880;-0.518;2022-11-14T01:59:10;5.13;;;4.00;;
46078;SDS011;31820;51.880;-0.518;2022-11-14T02:01:49;4.40;;;3.40;;
46078;SDS011;31820;51.880;-0.518;2022-11-14T02:04:23;4.13;;;2.97;;
46078;SDS011;31820;51.880;-0.518;2022-11-14T02:06:53;4.20;;;3.25;;
46078;SDS011;31820;51.880;-0.518;2022-11-14T02:09:21;4.03;;;3.47;;
46078;SDS011;31820;51.880;-0.518;2022-11-14T02:11:48;4.23;;;3.63;;
46078;SDS011;31820;51.880;-0.518;2022-11-14T02:14:15;4.25;;;3.33;;
46078;SDS011;31820;51.880;-0.518;2022-11-14T02:16:40;4.28;;;3.63;;
46078;SDS011;31820;51.880;-0.518;2022-11-14T02:19:07;5.10;;;3.33;;
46078;SDS011;31820;51.880;-0.518;2022-11-14T02:21:33;5.82;;;4.18;;
46078;SDS011;31820;51.880;-0.518;2022-11-14T02:23:59;4.43;;;3.53;;
46078;SDS011;31820;51.880;-0.518;2022-11-14T02:26:24;4.60;;;3.70;;
46078;SDS011;31820;51.880;-0.518;2022-11-14T02:28:50;3.97;;;2.90;;
46078;SDS011;31820;51.880;-0.518;2022-11-14T02:31:17;3.67;;;3.30;;
46078;SDS011;31820;51.880;-0.518;2022-11-14T02:33:42;4.22;;;3.55;;
46078;SDS011;31820;51.880;-0.518;2022-11-14T02:36:08;4.57;;;3.60;;
46078;SDS011;31820;51.880;-0.518;2022-11-14T02:38:34;3.88;;;2.58;;
46078;SDS011;31820;51.880;-0.518;2022-11-14T02:41:00;4.25;;;3.53;;
46078;SDS011;31820;51.880;-0.518;2022-11-14T02:43:26;4.35;;;3.83;;
46078;SDS011;31820;51.880;-0.518;2022-11-14T02:45:52;5.10;;;3.33;;
46078;SDS011;31820;51.880;-0.518;2022-11-14T02:48:17;4.47;;;3.30;;
46078;SDS011;31820;51.880;-0.518;2022-11-14T02:50:43;3.83;;;3.40;;
46078;SDS011;31820;51.880;-0.518;2022-11-14T02:53:09;3.20;;;2.85;;
46078;SDS011;31820;51.880;-0.518;2022-11-14T02:55:34;3.83;;;2.80;;
46078;SDS011;31820;51.880;-0.518;2022-11-14T02:58:00;4.07;;;3.13;;
46078;SDS011;31820;51.880;-0.518;2022-11-14T03:00:26;3.78;;;3.20;;
46078;SDS011;31820;51.880;-0.518;2022-11-14T03:02:52;4.57;;;3.85;;
46078;SDS011;31820;51.880;-0.518;2022-11-14T03:05:18;4.07;;;3.30;;
46078;SDS011;31820;51.880;-0.518;2022-11-14T03:07:43;4.30;;;3.17;;
46078;SDS011;31820;51.880;-0.518;2022-11-14T03:10:09;3.72;;;3.08;;
46078;SDS011;31820;51.880;-0.518;2022-11-14T03:12:36;3.83;;;2.80;;
46078;SDS011;31820;51.880;-0.518;2022-11-14T03:15:03;3.80;;;3.28;;
46078;SDS011;31820;51.880;-0.518;2022-11-14T03:19:55;4.97;;;3.60;;
46078;SDS011;31820;51.880;-0.518;2022-11-14T03:22:21;3.50;;;3.20;;
46078;SDS011;31820;51.880;-0.518;2022-11-14T03:24:46;3.60;;;3.17;;
46078;SDS011;31820;51.880;-0.518;2022-11-14T03:27:11;4.10;;;3.30;;
46078;SDS011;31820;51.880;-0.518;2022-11-14T03:29:37;3.42;;;2.97;;
46078;SDS011;31820;51.880;-0.518;2022-11-14T03:32:03;3.92;;;2.90;;
46078;SDS011;31820;51.880;-0.518;2022-11-14T03:34:28;4.82;;;3.35;;
46078;SDS011;31820;51.880;-0.518;2022-11-14T03:36:54;4.22;;;3.72;;
46078;SDS011;31820;51.880;-0.518;2022-11-14T03:39:19;3.72;;;3.22;;
46078;SDS011;31820;51.880;-0.518;2022-11-14T03:41:45;3.92;;;3.40;;
46078;SDS011;31820;51.880;-0.518;2022-11-14T03:44:10;4.00;;;3.35;;
46078;SDS011;31820;51.880;-0.518;2022-11-14T03:46:36;3.90;;;3.17;;
46078;SDS011;31820;51.880;-0.518;2022-11-14T03:49:01;4.40;;;3.80;;
46078;SDS011;31820;51.880;-0.518;2022-11-14T03:51:27;3.78;;;3.13;;
46078;SDS011;31820;51.880;-0.518;2022-11-14T03:53:53;4.55;;;3.88;;
46078;SDS011;31820;51.880;-0.518;2022-11-14T03:56:18;5.38;;;4.00;;
46078;SDS011;31820;51.880;-0.518;2022-11-14T03:58:43;4.78;;;3.83;;
46078;SDS011;31820;51.880;-0.518;2022-11-14T04:01:09;4.25;;;3.60;;
46078;SDS011;31820;51.880;-0.518;2022-11-14T04:03:34;4.45;;;3.13;;
46078;SDS011;31820;51.880;-0.518;2022-11-14T04:06:00;3.75;;;2.75;;
46078;SDS011;31820;51.880;-0.518;2022-11-14T04:08:25;3.47;;;3.00;;
46078;SDS011;31820;51.880;-0.518;2022-11-14T04:10:51;4.28;;;3.60;;
46078;SDS011;31820;51.880;-0.518;2022-11-14T04:13:16;4.47;;;3.08;;
46078;SDS011;31820;51.880;-0.518;2022-11-14T04:15:42;4.18;;;3.17;;
46078;SDS011;31820;51.880;-0.518;2022-11-14T04:18:07;3.38;;;2.90;;
46078;SDS011;31820;51.880;-0.518;2022-11-14T04:20:33;3.17;;;2.80;;
46078;SDS011;31820;51.880;-0.518;2022-11-14T04:22:58;3.33;;;2.80;;
46078;SDS011;31820;51.880;-0.518;2022-11-14T04:25:24;3.70;;;3.08;;
46078;SDS011;31820;51.880;-0.518;2022-11-14T04:27:49;3.55;;;3.25;;
46078;SDS011;31820;51.880;-0.518;2022-11-14T04:30:15;3.70;;;2.95;;
46078;SDS011;31820;51.880;-0.518;2022-11-14T04:32:42;3.58;;;2.60;;
46078;SDS011;31820;51.880;-0.518;2022-11-14T04:35:09;3.92;;;3.00;;
46078;SDS011;31820;51.880;-0.518;2022-11-14T04:37:34;3.90;;;3.50;;
46078;SDS011;31820;51.880;-0.518;2022-11-14T04:40:02;4.45;;;3.53;;
46078;SDS011;31820;51.880;-0.518;2022-11-14T04:42:28;3.50;;;2.80;;
46078;SDS011;31820;51.880;-0.518;2022-11-14T04:44:54;3.20;;;2.80;;
46078;SDS011;31820;51.880;-0.518;2022-11-14T04:47:19;4.50;;;3.60;;
46078;SDS011;31820;51.880;-0.518;2022-11-14T04:49:45;3.92;;;3.00;;
46078;SDS011;31820;51.880;-0.518;2022-11-14T04:52:10;3.30;;;2.67;;
46078;SDS011;31820;51.880;-0.518;2022-11-14T04:54:36;5.10;;;4.22;;
46078;SDS011;31820;51.880;-0.518;2022-11-14T04:57:01;3.90;;;3.50;;
46078;SDS011;31820;51.880;-0.518;2022-11-14T04:59:27;3.40;;;3.10;;
46078;SDS011;31820;51.880;-0.518;2022-11-14T05:01:52;3.05;;;2.53;;
46078;SDS011;31820;51.880;-0.518;2022-11-14T05:04:18;3.05;;;2.53;;
46078;SDS011;31820;51.880;-0.518;2022-11-14T05:06:43;3.05;;;2.75;;
46078;SDS011;31820;51.880;-0.518;2022-11-14T05:09:09;3.28;;;2.53;;
46078;SDS011;31820;51.880;-0.518;2022-11-14T05:11:34;3.20;;;2.60;;
46078;SDS011;31820;51.880;-0.518;2022-11-14T05:14:00;3.92;;;2.70;;
46078;SDS011;31820;51.880;-0.518;2022-11-14T05:16:25;3.17;;;2.50;;
46078;SDS011;31820;51.880;-0.518;2022-11-14T05:18:52;2.45;;;2.20;;
46078;SDS011;31820;51.880;-0.518;2022-11-14T05:21:19;4.30;;;2.47;;
46078;SDS011;31820;51.880;-0.518;2022-11-14T05:23:44;3.30;;;2.63;;
46078;SDS011;31820;51.880;-0.518;2022-11-14T05:26:11;3.33;;;2.58;;
46078;SDS011;31820;51.880;-0.518;2022-11-14T05:28:38;3.50;;;2.08;;
46078;SDS011;31820;51.880;-0.518;2022-11-14T05:31:05;3.03;;;2.72;;
46078;SDS011;31820;51.880;-0.518;2022-11-14T05:33:33;3.10;;;2.58;;
46078;SDS011;31820;51.880;-0.518;2022-11-14T05:36:03;3.53;;;2.75;;
46078;SDS011;31820;51.880;-0.518;2022-11-14T05:38:29;2.90;;;2.35;;
46078;SDS011;31820;51.880;-0.518;2022-11-14T05:40:55;3.17;;;2.38;;
46078;SDS011;31820;51.880;-0.518;2022-11-14T05:43:20;2.85;;;2.40;;
46078;SDS011;31820;51.880;-0.518;2022-11-14T05:45:46;2.72;;;2.50;;
46078;SDS011;31820;51.880;-0.518;2022-11-14T05:48:11;3.20;;;2.50;;
46078;SDS011;31820;51.880;-0.518;2022-11-14T05:50:37;2.35;;;2.10;;
46078;SDS011;31820;51.880;-0.518;2022-11-14T05:53:02;3.67;;;3.08;;
46078;SDS011;31820;51.880;-0.518;2022-11-14T05:55:28;3.17;;;2.53;;
46078;SDS011;31820;51.880;-0.518;2022-11-14T05:57:56;3.28;;;2.88;;
46078;SDS011;31820;51.880;-0.518;2022-11-14T06:00:23;2.92;;;2.28;;
46078;SDS011;31820;51.880;-0.518;2022-11-14T06:02:52;2.60;;;2.20;;
46078;SDS011;31820;51.880;-0.518;2022-11-14T06:05:18;3.35;;;3.00;;
46078;SDS011;31820;51.880;-0.518;2022-11-14T06:07:45;4.13;;;3.72;;
46078;SDS011;31820;51.880;-0.518;2022-11-14T06:10:10;4.55;;;4.03;;
46078;SDS011;31820;51.880;-0.518;2022-11-14T06:12:37;3.13;;;2.83;;
46078;SDS011;31820;51.880;-0.518;2022-11-14T06:15:03;3.30;;;3.00;;
46078;SDS011;31820;51.880;-0.518;2022-11-14T06:17:29;2.97;;;2.65;;
46078;SDS011;31820;51.880;-0.518;2022-11-14T06:19:54;3.67;;;2.80;;
46078;SDS011;31820;51.880;-0.518;2022-11-14T06:22:20;2.70;;;2.30;;
46078;SDS011;31820;51.880;-0.518;2022-11-14T06:24:45;3.53;;;2.90;;
46078;SDS011;31820;51.880;-0.518;2022-11-14T06:27:11;3.25;;;2.80;;
46078;SDS011;31820;51.880;-0.518;2022-11-14T06:29:36;3.17;;;2.83;;
46078;SDS011;31820;51.880;-0.518;2022-11-14T06:32:02;3.38;;;2.45;;
46078;SDS011;31820;51.880;-0.518;2022-11-14T06:34:27;3.50;;;2.75;;
46078;SDS011;31820;51.880;-0.518;2022-11-14T06:36:53;4.13;;;3.60;;
46078;SDS011;31820;51.880;-0.518;2022-11-14T06:39:18;3.25;;;2.83;;
46078;SDS011;31820;51.880;-0.518;2022-11-14T06:41:44;2.63;;;2.35;;
46078;SDS011;31820;51.880;-0.518;2022-11-14T06:44:09;3.92;;;3.08;;
46078;SDS011;31820;51.880;-0.518;2022-11-14T06:46:35;3.72;;;3.15;;
46078;SDS011;31820;51.880;-0.518;2022-11-14T06:49:00;2.72;;;2.33;;
46078;SDS011;31820;51.880;-0.518;2022-11-14T06:51:25;3.55;;;3.17;;
46078;SDS011;31820;51.880;-0.518;2022-11-14T06:53:51;2.92;;;2.60;;
46078;SDS011;31820;51.880;-0.518;2022-11-14T06:56:17;2.83;;;2.53;;
46078;SDS011;31820;51.880;-0.518;2022-11-14T07:03:40;2.47;;;2.10;;
46078;SDS011;31820;51.880;-0.518;2022-11-14T07:06:07;2.70;;;2.30;;
46078;SDS011;31820;51.880;-0.518;2022-11-14T07:08:34;2.92;;;2.38;;
46078;SDS011;31820;51.880;-0.518;2022-11-14T07:11:01;2.75;;;2.40;;
46078;SDS011;31820;51.880;-0.518;2022-11-14T07:13:33;3.55;;;2.13;;
46078;SDS011;31820;51.880;-0.518;2022-11-14T07:16:00;3.63;;;2.55;;
46078;SDS011;31820;51.880;-0.518;2022-11-14T07:18:26;2.67;;;2.28;;
46078;SDS011;31820;51.880;-0.518;2022-11-14T07:20:57;2.50;;;2.13;;
46078;SDS011;31820;51.880;-0.518;2022-11-14T07:23:28;2.63;;;2.22;;
46078;SDS011;31820;51.880;-0.518;2022-11-14T07:25:54;2.70;;;2.28;;
46078;SDS011;31820;51.880;-0.518;2022-11-14T07:28:20;2.47;;;2.22;;
46078;SDS011;31820;51.880;-0.518;2022-11-14T07:30:45;2.72;;;2.30;;
46078;SDS011;31820;51.880;-0.518;2022-11-14T07:33:11;2.97;;;2.50;;
46078;SDS011;31820;51.880;-0.518;2022-11-14T07:35:39;2.53;;;2.00;;
46078;SDS011;31820;51.880;-0.518;2022-11-14T07:38:05;2.83;;;1.90;;
46078;SDS011;31820;51.880;-0.518;2022-11-14T07:40:31;2.60;;;2.17;;
46078;SDS011;31820;51.880;-0.518;2022-11-14T07:42:59;3.70;;;2.13;;
46078;SDS011;31820;51.880;-0.518;2022-11-14T07:45:26;2.35;;;2.08;;
46078;SDS011;31820;51.880;-0.518;2022-11-14T07:47:54;3.30;;;2.25;;
46078;SDS011;31820;51.880;-0.518;2022-11-14T07:50:23;2.40;;;1.95;;
46078;SDS011;31820;51.880;-0.518;2022-11-14T07:52:51;3.30;;;2.25;;
46078;SDS011;31820;51.880;-0.518;2022-11-14T07:55:18;2.20;;;2.00;;
46078;SDS011;31820;51.880;-0.518;2022-11-14T07:57:44;3.28;;;1.92;;
46078;SDS011;31820;51.880;-0.518;2022-11-14T08:00:10;3.47;;;2.13;;
46078;SDS011;31820;51.880;-0.518;2022-11-14T08:02:36;3.00;;;2.20;;
46078;SDS011;31820;51.880;-0.518;2022-11-14T08:05:01;3.78;;;2.33;;
46078;SDS011;31820;51.880;-0.518;2022-11-14T08:07:27;2.45;;;2.20;;
46078;SDS011;31820;51.880;-0.518;2022-11-14T08:09:52;2.90;;;2.30;;
46078;SDS011;31820;51.880;-0.518;2022-11-14T08:12:18;2.60;;;2.13;;
46078;SDS011;31820;51.880;-0.518;2022-11-14T08:14:43;3.58;;;2.38;;
46078;SDS011;31820;51.880;-0.518;2022-11-14T08:17:09;2.58;;;2.15;;
46078;SDS011;31820;51.880;-0.518;2022-11-14T08:19:34;3.28;;;2.45;;
46078;SDS011;31820;51.880;-0.518;2022-11-14T08:22:00;2.70;;;2.08;;
46078;SDS011;31820;51.880;-0.518;2022-11-14T08:24:25;2.45;;;2.10;;
46078;SDS011;31820;51.880;-0.518;2022-11-14T08:26:51;3.03;;;2.58;;
46078;SDS011;31820;51.880;-0.518;2022-11-14T08:29:16;2.60;;;2.15;;
46078;SDS011;31820;51.880;-0.518;2022-11-14T08:31:41;2.95;;;2.22;;
46078;SDS011;31820;51.880;-0.518;2022-11-14T08:34:07;3.00;;;2.03;;
46078;SDS011;31820;51.880;-0.518;2022-11-14T08:36:33;3.20;;;2.45;;
46078;SDS011;31820;51.880;-0.518;2022-11-14T08:38:59;2.40;;;2.00;;
46078;SDS011;31820;51.880;-0.518;2022-11-14T08:41:24;3.05;;;2.17;;
46078;SDS011;31820;51.880;-0.518;2022-11-14T08:43:50;5.95;;;2.78;;
46078;SDS011;31820;51.880;-0.518;2022-11-14T08:46:15;6.75;;;2.20;;
46078;SDS011;31820;51.880;-0.518;2022-11-14T08:48:41;3.58;;;2.22;;
46078;SDS011;31820;51.880;-0.518;2022-11-14T08:51:06;3.92;;;2.40;;
46078;SDS011;31820;51.880;-0.518;2022-11-14T08:53:32;4.20;;;2.42;;
46078;SDS011;31820;51.880;-0.518;2022-11-14T08:55:58;6.60;;;2.88;;
46078;SDS011;31820;51.880;-0.518;2022-11-14T08:58:26;4.90;;;2.70;;
46078;SDS011;31820;51.880;-0.518;2022-11-14T09:00:53;5.18;;;2.50;;
46078;SDS011;31820;51.880;-0.518;2022-11-14T09:03:18;4.72;;;2.67;;
46078;SDS011;31820;51.880;-0.518;2022-11-14T09:05:49;7.18;;;3.25;;
46078;SDS011;31820;51.880;-0.518;2022-11-14T09:08:15;5.50;;;2.33;;
46078;SDS011;31820;51.880;-0.518;2022-11-14T09:10:41;4.68;;;2.38;;
46078;SDS011;31820;51.880;-0.518;2022-11-14T09:13:06;5.05;;;2.28;;
46078;SDS011;31820;51.880;-0.518;2022-11-14T09:15:32;5.85;;;2.60;;
46078;SDS011;31820;51.880;-0.518;2022-11-14T09:17:58;4.88;;;2.75;;
46078;SDS011;31820;51.880;-0.518;2022-11-14T09:20:24;4.45;;;1.92;;
46078;SDS011;31820;51.880;-0.518;2022-11-14T09:22:51;5.47;;;2.70;;
46078;SDS011;31820;51.880;-0.518;2022-11-14T09:25:20;4.83;;;2.63;;
46078;SDS011;31820;51.880;-0.518;2022-11-14T09:27:46;6.47;;;3.30;;
46078;SDS011;31820;51.880;-0.518;2022-11-14T09:30:12;5.38;;;2.40;;
46078;SDS011;31820;51.880;-0.518;2022-11-14T09:32:38;4.43;;;2.10;;
46078;SDS011;31820;51.880;-0.518;2022-11-14T09:35:04;6.38;;;3.08;;
46078;SDS011;31820;51.880;-0.518;2022-11-14T09:37:29;5.47;;;2.25;;
46078;SDS011;31820;51.880;-0.518;2022-11-14T09:39:55;6.13;;;3.03;;
46078;SDS011;31820;51.880;-0.518;2022-11-14T09:44:59;7.65;;;2.85;;
46078;SDS011;31820;51.880;-0.518;2022-11-14T09:47:27;4.72;;;2.60;;
46078;SDS011;31820;51.880;-0.518;2022-11-14T09:49:59;6.80;;;2.17;;
46078;SDS011;31820;51.880;-0.518;2022-11-14T09:55:18;4.20;;;2.42;;
46078;SDS011;31820;51.880;-0.518;2022-11-14T09:57:46;5.00;;;2.13;;
46078;SDS011;31820;51.880;-0.518;2022-11-14T10:00:13;5.05;;;2.30;;
46078;SDS011;31820;51.880;-0.518;2022-11-14T10:03:27;4.07;;;2.50;;
46078;SDS011;31820;51.880;-0.518;2022-11-14T10:18:45;10.18;;;3.10;;
46078;SDS011;31820;51.880;-0.518;2022-11-14T10:27:04;2.67;;;1.83;;
46078;SDS011;31820;51.880;-0.518;2022-11-14T10:37:40;4.25;;;2.13;;
46078;SDS011;31820;51.880;-0.518;2022-11-14T10:40:23;4.30;;;2.35;;
46078;SDS011;31820;51.880;-0.518;2022-11-14T10:42:54;4.35;;;2.40;;
46078;SDS011;31820;51.880;-0.518;2022-11-14T10:45:32;5.47;;;2.60;;
46078;SDS011;31820;51.880;-0.518;2022-11-14T10:48:11;3.58;;;1.73;;
46078;SDS011;31820;51.880;-0.518;2022-11-14T10:53:54;4.05;;;2.42;;
46078;SDS011;31820;51.880;-0.518;2022-11-14T10:56:22;3.65;;;2.22;;
46078;SDS011;31820;51.880;-0.518;2022-11-14T10:58:48;3.40;;;2.25;;
46078;SDS011;31820;51.880;-0.518;2022-11-14T11:06:50;4.40;;;2.25;;
46078;SDS011;31820;51.880;-0.518;2022-11-14T11:09:22;3.45;;;2.40;;
46078;SDS011;31820;51.880;-0.518;2022-11-14T11:12:15;4.93;;;2.30;;
46078;SDS011;31820;51.880;-0.518;2022-11-14T11:14:43;3.70;;;2.10;;
46078;SDS011;31820;51.880;-0.518;2022-11-14T11:19:35;4.97;;;2.15;;
46078;SDS011;31820;51.880;-0.518;2022-11-14T11:22:01;3.80;;;2.53;;
46078;SDS011;31820;51.880;-0.518;2022-11-14T11:29:36;3.80;;;1.88;;
46078;SDS011;31820;51.880;-0.518;2022-11-14T11:32:02;3.22;;;2.20;;
46078;SDS011;31820;51.880;-0.518;2022-11-14T11:34:29;3.47;;;2.40;;
46078;SDS011;31820;51.880;-0.518;2022-11-14T11:37:12;4.07;;;1.90;;
46078;SDS011;31820;51.880;-0.518;2022-11-14T11:39:44;3.20;;;1.90;;
46078;SDS011;31820;51.880;-0.518;2022-11-14T11:42:25;3.25;;;2.40;;
46078;SDS011;31820;51.880;-0.518;2022-11-14T11:44:55;3.45;;;2.30;;
46078;SDS011;31820;51.880;-0.518;2022-11-14T11:47:24;3.33;;;2.00;;
46078;SDS011;31820;51.880;-0.518;2022-11-14T11:49:51;3.65;;;2.08;;
46078;SDS011;31820;51.880;-0.518;2022-11-14T11:57:33;4.65;;;2.00;;
46078;SDS011;31820;51.880;-0.518;2022-11-14T12:00:05;2.85;;;2.00;;
46078;SDS011;31820;51.880;-0.518;2022-11-14T12:02:47;4.15;;;2.10;;
46078;SDS011;31820;51.880;-0.518;2022-11-14T12:05:15;3.47;;;2.00;;
46078;SDS011;31820;51.880;-0.518;2022-11-14T12:07:57;3.45;;;2.15;;
46078;SDS011;31820;51.880;-0.518;2022-11-14T12:10:26;4.05;;;2.42;;
46078;SDS011;31820;51.880;-0.518;2022-11-14T12:26:37;3.22;;;2.53;;
46078;SDS011;31820;51.880;-0.518;2022-11-14T12:31:58;3.60;;;2.75;;
46078;SDS011;31820;51.880;-0.518;2022-11-14T12:34:30;4.95;;;2.80;;
46078;SDS011;31820;51.880;-0.518;2022-11-14T12:36:59;5.20;;;3.08;;
46078;SDS011;31820;51.880;-0.518;2022-11-14T12:39:31;5.05;;;3.25;;
46078;SDS011;31820;51.880;-0.518;2022-11-14T12:42:00;5.35;;;3.47;;
46078;SDS011;31820;51.880;-0.518;2022-11-14T12:44:32;5.82;;;3.70;;
46078;SDS011;31820;51.880;-0.518;2022-11-14T12:49:55;4.43;;;3.58;;
46078;SDS011;31820;51.880;-0.518;2022-11-14T12:55:18;5.38;;;4.28;;
46078;SDS011;31820;51.880;-0.518;2022-11-14T13:00:54;5.97;;;4.35;;
46078;SDS011;31820;51.880;-0.518;2022-11-14T13:06:04;7.47;;;5.13;;
46078;SDS011;31820;51.880;-0.518;2022-11-14T13:11:44;6.53;;;5.32;;
46078;SDS011;31820;51.880;-0.518;2022-11-14T13:14:30;8.93;;;5.10;;
46078;SDS011;31820;51.880;-0.518;2022-11-14T13:17:30;6.47;;;5.10;;
46078;SDS011;31820;51.880;-0.518;2022-11-14T13:23:04;6.90;;;5.32;;
46078;SDS011;31820;51.880;-0.518;2022-11-14T13:44:14;10.20;;;7.65;;
46078;SDS011;31820;51.880;-0.518;2022-11-14T13:52:14;9.10;;;6.63;;
46078;SDS011;31820;51.880;-0.518;2022-11-14T13:54:44;7.85;;;6.35;;
46078;SDS011;31820;51.880;-0.518;2022-11-14T13:57:22;10.73;;;7.22;;
46078;SDS011;31820;51.880;-0.518;2022-11-14T14:02:34;6.45;;;5.30;;
46078;SDS011;31820;51.880;-0.518;2022-11-14T14:16:30;8.65;;;6.03;;
46078;SDS011;31820;51.880;-0.518;2022-11-14T14:19:06;9.43;;;6.47;;
46078;SDS011;31820;51.880;-0.518;2022-11-14T14:21:44;8.27;;;5.97;;
46078;SDS011;31820;51.880;-0.518;2022-11-14T14:32:42;8.40;;;5.38;;
46078;SDS011;31820;51.880;-0.518;2022-11-14T14:35:19;8.90;;;5.38;;
46078;SDS011;31820;51.880;-0.518;2022-11-14T14:37:49;7.03;;;4.90;;
46078;SDS011;31820;51.880;-0.518;2022-11-14T14:40:31;10.65;;;5.70;;
46078;SDS011;31820;51.880;-0.518;2022-11-14T14:42:59;9.00;;;5.30;;
46078;SDS011;31820;51.880;-0.518;2022-11-14T14:45:27;8.77;;;5.63;;
46078;SDS011;31820;51.880;-0.518;2022-11-14T14:53:28;6.65;;;4.90;;
46078;SDS011;31820;51.880;-0.518;2022-11-14T14:55:56;7.03;;;4.68;;
46078;SDS011;31820;51.880;-0.518;2022-11-14T14:58:27;7.30;;;4.68;;
46078;SDS011;31820;51.880;-0.518;2022-11-14T15:03:31;8.60;;;4.97;;
46078;SDS011;31820;51.880;-0.518;2022-11-14T15:06:03;8.32;;;4.43;;
46078;SDS011;31820;51.880;-0.518;2022-11-14T15:08:33;7.15;;;5.05;;
46078;SDS011;31820;51.880;-0.518;2022-11-14T15:11:01;7.13;;;4.47;;
46078;SDS011;31820;51.880;-0.518;2022-11-14T15:13:28;6.47;;;4.63;;
46078;SDS011;31820;51.880;-0.518;2022-11-14T15:15:54;7.28;;;4.68;;
46078;SDS011;31820;51.880;-0.518;2022-11-14T15:18:28;7.50;;;4.78;;
46078;SDS011;31820;51.880;-0.518;2022-11-14T15:21:05;8.73;;;5.20;;
46078;SDS011;31820;51.880;-0.518;2022-11-14T15:23:38;7.10;;;4.55;;
46078;SDS011;31820;51.880;-0.518;2022-11-14T15:26:08;6.82;;;4.47;;
46078;SDS011;31820;51.880;-0.518;2022-11-14T15:28:40;10.13;;;4.95;;
46078;SDS011;31820;51.880;-0.518;2022-11-14T15:31:05;7.18;;;4.03;;
46078;SDS011;31820;51.880;-0.518;2022-11-14T15:33:42;7.10;;;4.55;;
46078;SDS011;31820;51.880;-0.518;2022-11-14T15:36:11;7.43;;;4.70;;
46078;SDS011;31820;51.880;-0.518;2022-11-14T15:38:38;5.65;;;4.32;;
46078;SDS011;31820;51.880;-0.518;2022-11-14T15:43:47;5.95;;;4.15;;
46078;SDS011;31820;51.880;-0.518;2022-11-14T15:46:26;6.90;;;3.97;;
46078;SDS011;31820;51.880;-0.518;2022-11-14T15:48:51;6.85;;;4.50;;
46078;SDS011;31820;51.880;-0.518;2022-11-14T15:51:17;5.20;;;4.20;;
46078;SDS011;31820;51.880;-0.518;2022-11-14T15:53:46;6.30;;;4.70;;
46078;SDS011;31820;51.880;-0.518;2022-11-14T15:56:13;6.15;;;4.40;;
46078;SDS011;31820;51.880;-0.518;2022-11-14T15:58:39;6.40;;;4.15;;
46078;SDS011;31820;51.880;-0.518;2022-11-14T16:01:04;6.65;;;4.15;;
46078;SDS011;31820;51.880;-0.518;2022-11-14T16:03:37;6.03;;;4.00;;
46078;SDS011;31820;51.880;-0.518;2022-11-14T16:06:03;6.18;;;4.55;;
46078;SDS011;31820;51.880;-0.518;2022-11-14T16:08:28;7.65;;;4.78;;
46078;SDS011;31820;51.880;-0.518;2022-11-14T16:10:54;4.90;;;4.00;;
46078;SDS011;31820;51.880;-0.518;2022-11-14T16:13:19;5.72;;;4.25;;
46078;SDS011;31820;51.880;-0.518;2022-11-14T16:15:45;6.10;;;4.47;;
46078;SDS011;31820;51.880;-0.518;2022-11-14T16:18:10;5.43;;;4.55;;
46078;SDS011;31820;51.880;-0.518;2022-11-14T16:20:36;5.85;;;4.32;;
46078;SDS011;31820;51.880;-0.518;2022-11-14T16:25:29;5.88;;;3.97;;
46078;SDS011;31820;51.880;-0.518;2022-11-14T16:27:55;6.95;;;4.10;;
46078;SDS011;31820;51.880;-0.518;2022-11-14T16:30:21;6.93;;;4.63;;
46078;SDS011;31820;51.880;-0.518;2022-11-14T16:32:48;7.55;;;3.90;;
46078;SDS011;31820;51.880;-0.518;2022-11-14T16:37:42;23.48;;;6.50;;
46078;SDS011;31820;51.880;-0.518;2022-11-14T16:40:15;16.20;;;6.40;;
46078;SDS011;31820;51.880;-0.518;2022-11-14T16:42:41;21.75;;;6.30;;
46078;SDS011;31820;51.880;-0.518;2022-11-14T16:45:07;25.60;;;7.00;;
46078;SDS011;31820;51.880;-0.518;2022-11-14T16:47:33;22.25;;;7.80;;
46078;SDS011;31820;51.880;-0.518;2022-11-14T16:49:58;24.15;;;6.28;;
46078;SDS011;31820;51.880;-0.518;2022-11-14T16:52:25;21.70;;;6.60;;
46078;SDS011;31820;51.880;-0.518;2022-11-14T16:54:50;18.23;;;6.15;;
46078;SDS011;31820;51.880;-0.518;2022-11-14T16:57:16;18.20;;;7.20;;
46078;SDS011;31820;51.880;-0.518;2022-11-14T16:59:41;21.33;;;5.45;;
46078;SDS011;31820;51.880;-0.518;2022-11-14T17:02:10;14.27;;;6.68;;
46078;SDS011;31820;51.880;-0.518;2022-11-14T17:04:38;17.40;;;6.88;;
46078;SDS011;31820;51.880;-0.518;2022-11-14T17:07:06;15.48;;;6.30;;
46078;SDS011;31820;51.880;-0.518;2022-11-14T17:09:32;15.77;;;6.50;;
46078;SDS011;31820;51.880;-0.518;2022-11-14T17:11:58;15.43;;;6.13;;
46078;SDS011;31820;51.880;-0.518;2022-11-14T17:14:23;17.80;;;6.10;;
46078;SDS011;31820;51.880;-0.518;2022-11-14T17:16:49;13.52;;;6.25;;
46078;SDS011;31820;51.880;-0.518;2022-11-14T17:19:14;13.38;;;6.22;;
46078;SDS011;31820;51.880;-0.518;2022-11-14T17:21:39;17.83;;;6.47;;